Time;durP1;ratioP1;P1;durP2;ratioP2;P2;SDS_P1;SDS_P2;PMS_P1;PMS_P2;Temp;Humidity;BMP_temperature;BMP_pressure;BME280_temperature;BME280_humidity;BME280_pressure;Samples;Min_cycle;Max_cycle;Signal;HPM_P1;HPM_P2
2023/04/23 00:02:25;;;;;;;10.57;6.45;;;;;;;;;;4939227;28;20363;-73
2023/04/23 00:04:53;;;;;;;11.00;6.45;;;;;;;;;;4967135;28;20040;-73
2023/04/23 00:07:20;;;;;;;13.27;7.05;;;;;;;;;;4938590;28;20035;-74
2023/04/23 00:09:46;;;;;;;15.85;6.82;;;;;;;10.38;nan;100403.63;4939694;28;20105;-72
2023/04/23 00:12:12;;;;;;;8.30;6.30;;;;;;;10.30;nan;100393.44;4942163;28;20545;-74
2023/04/23 00:14:37;;;;;;;12.02;6.35;;;;;;;10.30;nan;100387.38;4941814;28;20430;-74
2023/04/23 00:17:03;;;;;;;11.10;6.45;;;;;;;10.34;nan;100389.31;4939929;28;20391;-74
2023/04/23 00:19:28;;;;;;;10.55;7.00;;;;;;;10.38;nan;100395.72;4940635;28;20406;-73
2023/04/23 00:21:54;;;;;;;14.98;7.00;;;;;;;10.35;nan;100398.81;4941336;28;20031;-74
2023/04/23 00:24:19;;;;;;;10.32;6.65;;;;;;;10.35;nan;100396.19;4970469;28;20038;-74
2023/04/23 00:26:45;;;;;;;13.75;6.85;;;;;;;10.37;nan;100399.41;4942051;28;20510;-73
2023/04/23 00:29:10;;;;;;;10.95;6.50;;;;;;;10.41;nan;100394.47;4937321;28;20062;-74
2023/04/23 00:31:35;;;;;;;14.43;6.30;;;;;;;10.38;nan;100393.09;4936440;28;20032;-74
2023/04/23 00:34:01;;;;;;;12.88;6.85;;;;;;;10.39;nan;100396.53;4938000;28;20023;-73
2023/04/23 00:36:26;;;;;;;9.27;6.28;;;;;;;10.45;nan;100403.53;4934452;28;20024;-74
2023/04/23 00:38:52;;;;;;;10.95;6.95;;;;;;;10.42;nan;100399.53;4938048;28;20039;-74
2023/04/23 00:41:18;;;;;;;9.95;6.72;;;;;;;;;;4938803;28;20042;-73
2023/04/23 00:43:44;;;;;;;16.45;7.47;;;;;;;;;;4935663;28;20039;-73
2023/04/23 00:46:10;;;;;;;15.68;7.40;;;;;;;;;;4939133;28;20094;-73
2023/04/23 00:48:35;;;;;;;16.75;7.25;;;;;;;;;;4937136;28;20087;-73
2023/04/23 00:51:05;;;;;;;16.58;7.38;;;;;;;;;;4970969;28;20406;-73
2023/04/23 00:53:30;;;;;;;14.68;7.70;;;;;;;;;;4936609;28;20098;-74
2023/04/23 00:55:56;;;;;;;19.58;8.60;;;;;;;;;;4937419;28;20130;-73
2023/04/23 00:58:22;;;;;;;14.98;8.13;;;;;;;;;;4969895;28;20069;-73
2023/04/23 01:00:48;;;;;;;13.20;8.05;;;;;;;;;;4945455;28;20042;-74
2023/04/23 01:03:14;;;;;;;18.02;8.73;;;;;;;;;;4936574;28;20082;-74
2023/04/23 01:05:40;;;;;;;17.13;8.82;;;;;;;;;;4937811;28;20051;-74
2023/04/23 01:08:06;;;;;;;15.85;8.68;;;;;;;;;;4937474;28;20106;-74
2023/04/23 01:10:31;;;;;;;17.63;9.20;;;;;;;;;;4965946;28;20134;-74
2023/04/23 01:12:57;;;;;;;17.05;9.15;;;;;;;;;;4935088;28;20536;-73
2023/04/23 01:15:22;;;;;;;18.40;9.15;;;;;;;;;;4967903;28;20448;-74
2023/04/23 01:17:48;;;;;;;16.00;9.57;;;;;;;;;;4936291;28;20134;-74
2023/04/23 01:20:13;;;;;;;16.23;8.77;;;;;;;;;;4969295;28;20324;-74
2023/04/23 01:22:38;;;;;;;13.10;8.88;;;;;;;;;;4938212;28;20042;-74
2023/04/23 01:25:04;;;;;;;16.42;8.98;;;;;;;;;;4945013;28;20034;-74
2023/04/23 01:27:30;;;;;;;16.33;10.18;;;;;;;;;;4933456;28;20028;-74
2023/04/23 01:29:56;;;;;;;18.92;10.05;;;;;;;;;;4938990;28;20035;-73
2023/04/23 01:32:21;;;;;;;19.73;10.48;;;;;;;;;;4938077;28;20024;-74
2023/04/23 01:34:47;;;;;;;18.50;9.95;;;;;;;;;;4965998;28;20038;-73
2023/04/23 01:37:12;;;;;;;20.83;10.02;;;;;;;;;;4937128;28;20119;-73
2023/04/23 01:39:37;;;;;;;19.67;10.18;;;;;;;;;;4940828;28;20500;-72
2023/04/23 01:42:05;;;;;;;17.10;10.57;;;;;;;;;;4967228;28;20042;-73
2023/04/23 01:44:31;;;;;;;17.02;9.80;;;;;;;;;;4938009;28;20282;-71
2023/04/23 01:46:56;;;;;;;16.70;10.40;;;;;;;;;;4936721;28;20126;-72
2023/04/23 01:49:21;;;;;;;16.50;10.43;;;;;;;;;;4936630;28;20052;-73
2023/04/23 01:51:47;;;;;;;18.15;10.07;;;;;;;;;;4933650;28;20289;-73
2023/04/23 01:54:12;;;;;;;13.60;9.77;;;;;;;;;;4971624;28;20035;-73
2023/04/23 01:56:37;;;;;;;24.07;10.53;;;;;;;;;;4966525;28;20542;-73
2023/04/23 01:59:02;;;;;;;18.77;10.57;;;;;;;;;;4936775;28;20344;-73
2023/04/23 02:01:46;;;;;;;20.35;11.15;;;;;;;;;;4932842;28;20326;-73
2023/04/23 02:04:12;;;;;;;17.60;10.90;;;;;;;;;;4936215;28;20031;-73
2023/04/23 02:06:37;;;;;;;18.38;11.40;;;;;;;;;;4934472;28;20042;-73
2023/04/23 02:09:02;;;;;;;20.58;11.15;;;;;;;;;;4937445;28;20085;-73
2023/04/23 02:11:28;;;;;;;17.40;10.65;;;;;;;;;;4969893;28;20138;-73
2023/04/23 02:13:53;;;;;;;17.57;11.07;;;;;;;;;;4937091;28;20474;-71
2023/04/23 02:16:18;;;;;;;20.67;12.63;;;;;;;;;;4934328;28;20366;-74
2023/04/23 02:18:43;;;;;;;20.47;11.73;;;;;;;;;;4936990;28;20345;-73
2023/04/23 02:21:10;;;;;;;20.90;12.43;;;;;;;;;;4933952;28;20321;-73
2023/04/23 02:23:35;;;;;;;21.15;10.63;;;;;;;;;;4935549;28;20032;-73
2023/04/23 02:26:00;;;;;;;21.65;11.63;;;;;;;;;;4937820;28;20058;-73
2023/04/23 02:28:25;;;;;;;19.87;12.30;;;;;;;;;;4936301;28;20603;-72
2023/04/23 02:30:51;;;;;;;21.13;12.07;;;;;;;;;;4934657;28;20281;-73
2023/04/23 02:33:16;;;;;;;24.40;11.47;;;;;;;;;;4932865;28;20038;-73
2023/04/23 02:35:41;;;;;;;23.92;11.50;;;;;;;;;;4939740;28;20035;-74
2023/04/23 02:38:06;;;;;;;20.17;11.43;;;;;;;;;;4939415;28;20031;-73
2023/04/23 02:40:32;;;;;;;23.23;11.63;;;;;;;;;;4942162;28;20906;-73
2023/04/23 02:42:57;;;;;;;18.07;12.03;;;;;;;;;;4937699;28;20035;-73
2023/04/23 02:45:22;;;;;;;19.57;12.13;;;;;;;;;;4938528;28;20064;-73
2023/04/23 02:47:47;;;;;;;21.27;11.52;;;;;;;;;;4940682;28;20133;-73
2023/04/23 02:50:13;;;;;;;22.53;12.13;;;;;;;;;;4939996;28;21387;-73
2023/04/23 02:52:38;;;;;;;24.33;11.85;;;;;;;;;;4940650;28;20553;-73
2023/04/23 02:55:04;;;;;;;18.73;12.07;;;;;;;;;;4948972;28;20035;-73
2023/04/23 02:57:29;;;;;;;18.83;11.75;;;;;;;;;;4942566;28;20059;-73
2023/04/23 02:59:54;;;;;;;20.20;12.60;;;;;;;;;;4942702;28;20041;-73
2023/04/23 03:02:20;;;;;;;22.77;12.35;;;;;;;;;;4970070;28;20036;-69
2023/04/23 03:04:45;;;;;;;22.65;11.63;;;;;;;;;;4939737;28;20042;-68
2023/04/23 03:07:12;;;;;;;21.50;12.63;;;;;;;;;;4946571;28;20032;-70
2023/04/23 03:09:37;;;;;;;19.05;12.50;;;;;;;;;;4940446;28;20035;-67
2023/04/23 03:12:03;;;;;;;21.10;12.57;;;;;;;;;;4943170;28;20027;-69
2023/04/23 03:14:28;;;;;;;21.83;12.55;;;;;;;9.14;nan;100395.84;4934271;28;20075;-68
2023/04/23 03:16:53;;;;;;;24.02;12.02;;;;;;;9.13;nan;100406.59;4941428;28;20112;-70
2023/04/23 03:19:19;;;;;;;21.05;12.30;;;;;;;9.13;nan;100402.13;4941430;28;20086;-70
2023/04/23 03:21:44;;;;;;;20.27;11.93;;;;;;;9.04;nan;100384.22;4940096;28;20027;-71
2023/04/23 03:24:12;;;;;;;20.90;12.32;;;;;;;9.12;nan;100408.41;4941708;28;20035;-70
2023/04/23 03:26:37;;;;;;;20.05;11.98;;;;;;;9.11;nan;100409.41;4938042;28;20039;-70
2023/04/23 03:29:05;;;;;;;18.55;12.27;;;;;;;9.10;nan;100410.44;4941380;28;20457;-70
2023/04/23 03:31:30;;;;;;;24.17;12.55;;;;;;;9.06;nan;100404.00;4935393;28;20114;-69
2023/04/23 03:33:55;;;;;;;18.33;12.00;;;;;;;8.96;nan;100381.88;4941118;28;20570;-69
2023/04/23 03:36:21;;;;;;;18.08;11.40;;;;;;;9.04;nan;100400.00;4940863;28;20753;-68
2023/04/23 03:38:46;;;;;;;19.88;11.95;;;;;;;9.00;nan;100398.81;4955149;28;20041;-70
2023/04/23 03:41:11;;;;;;;19.98;11.85;;;;;;;8.93;nan;100385.72;4940429;28;20027;-69
2023/04/23 03:43:37;;;;;;;22.55;12.15;;;;;;;8.92;nan;100381.50;4939839;28;20095;-70
2023/04/23 03:46:02;;;;;;;24.08;11.90;;;;;;;8.92;nan;100389.38;4936977;28;20453;-70
2023/04/23 03:48:28;;;;;;;20.20;12.05;;;;;;;8.83;nan;100383.56;4938402;28;20727;-70
2023/04/23 03:50:53;;;;;;;20.98;12.38;;;;;;;8.87;nan;100389.22;4937768;28;20073;-69
2023/04/23 03:53:19;;;;;;;23.35;12.55;;;;;;;8.87;nan;100391.84;4938926;28;20412;-69
2023/04/23 03:55:44;;;;;;;20.38;11.93;;;;;;;8.84;nan;100390.44;4938428;28;20039;-68
2023/04/23 03:58:09;;;;;;;19.92;11.40;;;;;;;8.89;nan;100397.69;4940265;28;20114;-70
2023/04/23 04:00:35;;;;;;;19.10;12.25;;;;;;;8.84;nan;100393.06;4937068;28;20109;-69
2023/04/23 04:03:01;;;;;;;18.75;12.00;;;;;;;8.92;nan;100405.13;4936874;28;20035;-69
2023/04/23 04:05:27;;;;;;;21.92;12.13;;;;;;;8.77;nan;100378.38;4939385;28;20556;-69
2023/04/23 04:07:53;;;;;;;18.60;11.35;;;;;;;8.87;nan;100397.09;4942128;28;20054;-69
2023/04/23 04:10:18;;;;;;;18.98;10.88;;;;;;;8.85;nan;100407.78;4939343;28;20032;-69
2023/04/23 04:12:46;;;;;;;22.48;10.98;;;;;;;8.69;nan;100389.94;4937685;28;20126;-67
2023/04/23 04:15:12;;;;;;;18.63;10.55;;;;;;;8.61;nan;100385.75;4938562;28;20038;-69
2023/04/23 04:17:37;;;;;;;17.33;10.60;;;;;;;8.67;nan;100399.84;4942746;28;20060;-69
2023/04/23 04:20:03;;;;;;;15.40;10.55;;;;;;;8.60;nan;100394.66;4937770;28;20505;-70
2023/04/23 04:22:29;;;;;;;22.05;9.98;;;;;;;8.67;nan;100411.16;4936164;28;20028;-73
2023/04/23 04:24:56;;;;;;;17.70;9.95;;;;;;;8.73;nan;100420.00;4937195;28;20552;-72
2023/04/23 04:27:21;;;;;;;15.80;9.88;;;;;;;8.60;nan;100399.91;4939966;28;20130;-73
2023/04/23 04:29:47;;;;;;;16.55;9.43;;;;;;;8.72;nan;100413.16;4940727;28;20434;-73
2023/04/23 04:32:13;;;;;;;16.90;9.88;;;;;;;8.70;nan;100415.19;4972409;28;20038;-70
2023/04/23 04:34:38;;;;;;;14.05;9.13;;;;;;;8.66;nan;100403.47;4937364;28;20038;-72
2023/04/23 04:37:04;;;;;;;15.35;9.02;;;;;;;8.64;nan;100408.97;4957067;28;20031;-70
2023/04/23 04:39:29;;;;;;;13.10;9.00;;;;;;;8.67;nan;100413.00;4938677;28;20111;-70
2023/04/23 04:41:56;;;;;;;16.95;9.18;;;;;;;8.68;nan;100412.75;4940456;28;20114;-71
2023/04/23 04:44:22;;;;;;;16.90;9.23;;;;;;;8.78;nan;100419.38;4939182;28;20031;-71
2023/04/23 04:46:47;;;;;;;17.33;9.90;;;;;;;8.81;nan;100422.38;4971450;28;20036;-71
2023/04/23 04:49:12;;;;;;;15.15;9.10;;;;;;;8.81;nan;100417.13;4939749;28;20047;-73
2023/04/23 04:51:40;;;;;;;15.68;9.45;;;;;;;8.91;nan;100424.53;4939208;28;20512;-72
2023/04/23 04:54:06;;;;;;;13.52;8.55;;;;;;;8.94;nan;100431.97;4943242;29;20027;-68
2023/04/23 04:56:32;;;;;;;16.08;9.05;;;;;;;;;;4937762;28;20031;-70
2023/04/23 04:58:57;;;;;;;16.83;9.20;;;;;;;;;;4942461;28;20045;-69
2023/04/23 05:01:24;;;;;;;12.85;8.73;;;;;;;;;;4936099;28;20031;-71
2023/04/23 05:03:49;;;;;;;16.38;9.13;;;;;;;;;;4937513;29;20028;-73
2023/04/23 05:06:17;;;;;;;17.10;9.55;;;;;;;;;;4938403;28;20490;-74
2023/04/23 05:08:46;;;;;;;12.93;8.93;;;;;;;9.14;nan;100427.38;4962696;28;20073;-73
2023/04/23 05:11:13;;;;;;;12.70;8.82;;;;;;;9.01;nan;100403.84;4937536;28;20055;-72
2023/04/23 05:13:38;;;;;;;20.10;10.05;;;;;;;9.21;nan;100426.53;4940472;28;20032;-72
2023/04/23 05:16:04;;;;;;;15.00;9.35;;;;;;;9.31;nan;100430.28;4938827;28;20481;-70
2023/04/23 05:18:29;;;;;;;12.38;8.85;;;;;;;9.40;nan;100433.44;4938189;28;20394;-69
2023/04/23 05:20:55;;;;;;;12.40;8.93;;;;;;;9.49;nan;100437.38;4938982;28;20086;-69
2023/04/23 05:23:20;;;;;;;17.57;9.00;;;;;;;9.55;nan;100430.44;4937642;28;20114;-68
2023/04/23 05:25:45;;;;;;;15.05;8.40;;;;;;;9.64;nan;100437.03;4937308;28;20023;-69
2023/04/23 05:28:11;;;;;;;14.50;8.77;;;;;;;9.41;nan;100398.25;4936946;28;20122;-68
2023/04/23 05:30:36;;;;;;;13.63;8.27;;;;;;;9.69;nan;100433.75;4936066;28;20043;-68
2023/04/23 05:33:02;;;;;;;17.98;8.60;;;;;;;9.74;nan;100436.53;4966832;28;20023;-69
2023/04/23 05:35:27;;;;;;;11.73;8.10;;;;;;;9.86;nan;100429.53;4935373;28;20117;-69
2023/04/23 05:37:53;;;;;;;14.95;9.23;;;;;;;9.95;nan;100432.69;4939072;28;20029;-69
2023/04/23 05:40:18;;;;;;;17.52;8.27;;;;;;;10.04;nan;100435.81;4937799;28;20393;-68
2023/04/23 05:42:43;;;;;;;13.15;9.13;;;;;;;10.06;nan;100431.94;4938269;28;20027;-69
2023/04/23 05:45:09;;;;;;;15.18;8.05;;;;;;;10.19;nan;100442.31;4937443;28;20034;-70
2023/04/23 05:47:35;;;;;;;16.60;8.25;;;;;;;10.25;nan;100431.91;4937637;28;20383;-69
2023/04/23 05:50:01;;;;;;;12.63;7.97;;;;;;;10.38;nan;100440.47;4939581;28;20433;-68
2023/04/23 05:52:29;;;;;;;12.02;7.47;;;;;;;10.48;nan;100450.47;4939014;28;20042;-69
2023/04/23 05:54:54;;;;;;;10.52;7.05;;;;;;;10.50;nan;100429.22;4935264;28;20505;-69
2023/04/23 05:57:20;;;;;;;13.68;7.82;;;;;;;10.63;nan;100444.81;4938354;28;20031;-69
2023/04/23 05:59:45;;;;;;;14.73;7.82;;;;;;;10.72;nan;100445.31;4933786;28;20394;-70
2023/04/23 06:02:11;;;;;;;11.93;7.60;;;;;;;;;;4938930;28;20441;-69
2023/04/23 06:04:36;;;;;;;12.35;7.88;;;;;;;;;;4937576;28;20038;-70
2023/04/23 06:07:01;;;;;;;12.43;7.93;;;;;;;;;;4939116;28;20699;-70
2023/04/23 06:09:27;;;;;;;15.45;7.63;;;;;;;11.28;nan;100491.50;4940039;28;20031;-71
2023/04/23 06:11:53;;;;;;;12.68;7.60;;;;;;;10.90;nan;100418.91;4941709;28;20102;-70
2023/04/23 06:14:18;;;;;;;14.55;8.20;;;;;;;11.00;nan;100429.69;4936562;28;20110;-69
2023/04/23 06:16:44;;;;;;;14.45;8.20;;;;;;;11.15;nan;100442.41;4935611;29;20035;-69
2023/04/23 06:19:10;;;;;;;12.48;8.57;;;;;;;11.10;nan;100431.75;4936373;28;20023;-70
2023/04/23 06:21:35;;;;;;;13.00;7.97;;;;;;;11.13;nan;100425.22;4938725;28;20085;-69
2023/04/23 06:24:01;;;;;;;14.15;8.35;;;;;;;11.25;nan;100436.56;4938647;28;20031;-69
2023/04/23 06:26:26;;;;;;;14.85;7.50;;;;;;;11.36;nan;100440.28;4939714;28;20116;-69
2023/04/23 06:28:51;;;;;;;13.45;8.45;;;;;;;11.51;nan;100443.25;4938574;28;20122;-71
2023/04/23 06:31:18;;;;;;;15.93;8.80;;;;;;;11.49;nan;100432.94;4935099;28;20047;-72
2023/04/23 06:33:43;;;;;;;12.02;7.53;;;;;;;11.71;nan;100437.63;4936904;28;20024;-71
2023/04/23 06:36:09;;;;;;;14.32;6.57;;;;;;;11.88;nan;100449.09;4938685;28;20058;-72
2023/04/23 06:38:35;;;;;;;11.75;6.80;;;;;;;11.99;nan;100441.38;4933709;28;20516;-73
2023/04/23 06:41:02;;;;;;;13.57;7.22;;;;;;;12.12;nan;100431.38;4937072;28;20035;-70
2023/04/23 06:43:28;;;;;;;12.18;7.60;;;;;;;12.29;nan;100435.91;4933915;28;20027;-72
2023/04/23 06:45:53;;;;;;;11.45;7.25;;;;;;;12.44;nan;100435.41;4936391;28;20031;-71
2023/04/23 06:48:20;;;;;;;11.18;7.15;;;;;;;12.47;nan;100419.88;4951790;28;20382;-71
2023/04/23 06:50:47;;;;;;;15.48;7.47;;;;;;;12.51;nan;100423.63;4939817;28;20023;-72
2023/04/23 06:53:12;;;;;;;13.65;6.88;;;;;;;12.61;nan;100425.66;4937170;28;20454;-72
2023/04/23 06:55:37;;;;;;;11.40;6.70;;;;;;;12.72;nan;100431.94;4937891;28;20051;-71
2023/04/23 06:58:05;;;;;;;11.40;6.28;;;;;;;12.84;nan;100429.22;4938563;28;20051;-70
2023/04/23 07:00:31;;;;;;;11.98;6.75;;;;;;;12.93;nan;100430.44;4936354;28;20070;-67
2023/04/23 07:02:57;;;;;;;9.93;6.10;;;;;;;13.09;nan;100426.97;4934688;28;20728;-70
2023/04/23 07:05:22;;;;;;;10.63;5.85;;;;;;;13.23;nan;100430.09;4937760;28;20034;-70
2023/04/23 07:07:48;;;;;;;8.75;5.47;;;;;;;13.21;nan;100426.91;4935994;28;20048;-71
2023/04/23 07:10:13;;;;;;;13.07;5.78;;;;;;;13.30;nan;100430.78;4937602;28;20027;-72
2023/04/23 07:12:38;;;;;;;9.13;4.90;;;;;;;13.47;nan;100429.97;4943424;28;20446;-72
2023/04/23 07:15:05;;;;;;;9.48;5.63;;;;;;;13.52;nan;100433.47;4935817;28;20023;-72
2023/04/23 07:17:31;;;;;;;9.68;5.10;;;;;;;13.52;nan;100414.94;4937604;28;20116;-72
2023/04/23 07:19:57;;;;;;;8.10;5.50;;;;;;;13.64;nan;100425.44;4940936;28;20056;-72
2023/04/23 07:22:25;;;;;;;8.27;5.30;;;;;;;13.81;nan;100443.91;4936726;28;20031;-72
2023/04/23 07:24:52;;;;;;;10.13;5.50;;;;;;;13.87;nan;100434.22;4936091;28;20040;-71
2023/04/23 07:27:17;;;;;;;8.98;5.05;;;;;;;13.80;nan;100415.84;4971685;28;20032;-72
2023/04/23 07:29:43;;;;;;;6.60;4.65;;;;;;;13.96;nan;100433.53;4973929;28;20081;-73
2023/04/23 07:32:08;;;;;;;8.40;4.53;;;;;;;14.04;nan;100437.59;4941820;28;20079;-73
2023/04/23 07:34:35;;;;;;;13.38;5.30;;;;;;;14.07;nan;100431.00;4938788;28;20033;-73
2023/04/23 07:37:01;;;;;;;10.25;4.93;;;;;;;14.14;nan;100435.06;4940275;28;20086;-73
2023/04/23 07:39:26;;;;;;;11.90;5.10;;;;;;;13.98;nan;100415.56;4943458;28;20553;-73
2023/04/23 07:41:52;;;;;;;9.02;5.78;;;;;;;14.20;nan;100428.78;4940161;28;20038;-73
2023/04/23 07:44:17;;;;;;;9.98;4.72;;;;;;;14.24;nan;100434.38;4969365;28;20027;-73
2023/04/23 07:46:43;;;;;;;6.28;4.93;;;;;;;14.17;nan;100421.31;4938633;28;20754;-72
2023/04/23 07:49:08;;;;;;;7.35;4.95;;;;;;;14.33;nan;100437.38;4942619;28;20086;-74
2023/04/23 07:51:33;;;;;;;8.30;5.40;;;;;;;14.33;nan;100432.09;4936669;28;20035;-73
2023/04/23 07:53:59;;;;;;;10.65;5.35;;;;;;;14.38;nan;100430.28;4941568;28;20050;-74
2023/04/23 07:56:24;;;;;;;6.63;5.18;;;;;;;14.37;nan;100418.09;4938657;28;20015;-74
2023/04/23 07:58:52;;;;;;;7.57;5.10;;;;;;;14.52;nan;100432.53;4941036;29;20690;-74
2023/04/23 08:01:18;;;;;;;7.78;4.85;;;;;;;14.46;nan;100418.44;4964623;28;20039;-74
2023/04/23 08:03:44;;;;;;;6.43;5.00;;;;;;;14.54;nan;100422.53;4940084;28;20027;-74
2023/04/23 08:06:11;;;;;;;6.82;4.60;;;;;;;14.60;nan;100429.47;4937089;28;20489;-74
2023/04/23 08:08:36;;;;;;;8.88;4.72;;;;;;;14.59;nan;100426.03;4940478;28;20034;-74
2023/04/23 08:11:02;;;;;;;7.40;4.40;;;;;;;14.62;nan;100428.16;4938298;28;20036;-74
2023/04/23 08:13:27;;;;;;;9.35;4.57;;;;;;;14.72;nan;100435.41;4940118;28;20027;-74
2023/04/23 08:15:52;;;;;;;7.55;4.78;;;;;;;14.72;nan;100426.66;4936794;28;20572;-74
2023/04/23 08:18:18;;;;;;;9.23;4.30;;;;;;;14.79;nan;100429.91;4937431;28;20438;-74
2023/04/23 08:20:43;;;;;;;6.00;4.35;;;;;;;14.88;nan;100439.00;4936460;28;20062;-72
2023/04/23 08:23:09;;;;;;;8.77;4.47;;;;;;;14.80;nan;100416.41;4940858;28;20389;-72
2023/04/23 08:25:35;;;;;;;9.55;4.90;;;;;;;14.88;nan;100415.94;4939838;28;20118;-73
2023/04/23 08:28:01;;;;;;;7.18;4.65;;;;;;;15.04;nan;100431.97;4937774;29;20515;-73
2023/04/23 08:30:26;;;;;;;7.07;4.20;;;;;;;15.02;nan;100418.97;4969546;28;20102;-71
2023/04/23 08:32:52;;;;;;;10.43;4.88;;;;;;;15.04;nan;100421.38;4939580;29;20027;-72
2023/04/23 08:35:18;;;;;;;5.70;4.20;;;;;;;15.06;nan;100404.16;4937596;28;20034;-71
2023/04/23 08:37:45;;;;;;;11.95;4.57;;;;;;;15.14;nan;100418.78;4940197;28;20040;-72
2023/04/23 08:40:10;;;;;;;6.32;4.20;;;;;;;14.97;nan;100387.13;4936273;28;20028;-73
2023/04/23 08:42:47;;;;;;;7.80;4.78;;;;;;;15.29;nan;100420.75;4938323;29;20028;-72
2023/04/23 08:45:13;;;;;;;8.55;4.10;;;;;;;15.30;nan;100415.19;4937457;28;20058;-72
2023/04/23 08:47:43;;;;;;;7.20;4.38;;;;;;;15.32;nan;100415.75;4969847;28;20644;-73
2023/04/23 08:50:15;;;;;;;6.95;4.55;;;;;;;15.37;nan;100419.47;4953325;28;20031;-73
2023/04/23 08:52:43;;;;;;;7.20;4.53;;;;;;;15.48;nan;100427.22;4940929;28;20027;-72
2023/04/23 08:55:09;;;;;;;6.38;4.18;;;;;;;15.52;nan;100420.34;4938299;28;20401;-73
2023/04/23 08:57:38;;;;;;;5.07;4.10;;;;;;;15.45;nan;100406.53;4940560;28;20160;-73
2023/04/23 09:00:05;;;;;;;8.73;4.53;;;;;;;15.55;nan;100413.75;4944607;28;20051;-72
2023/04/23 09:02:32;;;;;;;6.75;4.45;;;;;;;15.52;nan;100406.28;4941619;28;20036;-73
2023/04/23 09:04:58;;;;;;;7.75;4.40;;;;;;;15.60;nan;100405.78;4941863;28;20039;-73
2023/04/23 09:07:24;;;;;;;6.93;4.35;;;;;;;15.59;nan;100406.06;4969977;28;20031;-71
2023/04/23 09:09:49;;;;;;;7.38;4.53;;;;;;;15.65;nan;100405.81;4937286;28;20035;-71
2023/04/23 09:12:15;;;;;;;9.57;4.97;;;;;;;15.65;nan;100400.50;4938023;28;20532;-72
2023/04/23 09:14:40;;;;;;;8.85;4.60;;;;;;;15.64;nan;100395.47;4944933;28;20035;-72
2023/04/23 09:17:06;;;;;;;9.43;4.45;;;;;;;15.70;nan;100408.53;4939809;28;20103;-71
2023/04/23 09:19:31;;;;;;;5.30;4.63;;;;;;;15.74;nan;100406.97;4936768;28;20024;-71
2023/04/23 09:21:59;;;;;;;8.98;4.68;;;;;;;15.76;nan;100397.94;4936357;28;20055;-70
2023/04/23 09:24:25;;;;;;;7.60;4.30;;;;;;;15.83;nan;100406.47;4936576;28;20083;-72
2023/04/23 09:26:52;;;;;;;9.30;4.70;;;;;;;15.89;nan;100410.72;4936410;28;20027;-71
2023/04/23 09:29:20;;;;;;;8.00;4.78;;;;;;;15.88;nan;100401.97;4940292;28;20028;-71
2023/04/23 09:31:48;;;;;;;13.40;4.95;;;;;;;15.95;nan;100407.84;4938566;28;20028;-70
2023/04/23 09:34:24;;;;;;;9.68;4.75;;;;;;;15.93;nan;100396.69;4969048;28;20115;-70
2023/04/23 09:36:51;;;;;;;7.47;4.68;;;;;;;15.99;nan;100397.47;4972853;28;20030;-70
2023/04/23 09:39:20;;;;;;;9.30;4.20;;;;;;;15.99;nan;100392.16;4940842;28;20019;-70
2023/04/23 09:41:45;;;;;;;;;;;;;;;16.10;nan;100398.34;4937823;28;20117;-71
2023/04/23 09:44:12;;;;;;;7.13;4.28;;;;;;;16.10;nan;100393.03;4937315;29;19975;-71
2023/04/23 09:46:42;;;;;;;10.93;4.40;;;;;;;16.18;nan;100397.81;4936595;28;20058;-71
2023/04/23 09:49:12;;;;;;;7.68;4.47;;;;;;;16.08;nan;100377.34;4968156;28;20043;-78
2023/04/23 09:51:43;;;;;;;7.18;4.50;;;;;;;16.02;nan;100356.31;4936086;28;20383;-79
2023/04/23 09:54:26;;;;;;;8.63;4.47;;;;;;;16.01;nan;100352.88;4937846;29;20031;-77
2023/04/23 09:56:56;;;;;;;11.35;5.20;;;;;;;16.27;nan;100385.63;4939320;28;20038;-77
2023/04/23 09:59:25;;;;;;;10.15;5.93;;;;;;;16.31;nan;100384.03;4951711;28;20054;-79
2023/04/23 10:01:51;;;;;;;21.52;12.07;;;;;;;16.33;nan;100376.59;4939802;28;20058;-79
2023/04/23 10:04:21;;;;;;;12.82;7.03;;;;;;;15.98;nan;100302.94;4936348;28;20845;-79
2023/04/23 10:06:54;;;;;;;9.77;5.72;;;;;;;16.12;nan;100321.84;4939357;28;20045;-79
2023/04/23 10:09:23;;;;;;;8.57;5.13;;;;;;;16.31;nan;100330.88;4940562;28;20031;-79
2023/04/23 10:12:03;;;;;;;10.63;4.43;;;;;;;16.44;nan;100347.38;4940158;28;20034;-78
2023/04/23 10:14:29;;;;;;;8.45;4.75;;;;;;;16.20;nan;100309.88;4941746;28;20032;-77
2023/04/23 10:17:01;;;;;;;6.35;4.38;;;;;;;16.49;nan;100339.41;4972788;28;20058;-77
2023/04/23 10:19:27;;;;;;;7.72;4.50;;;;;;;16.51;nan;100330.09;4941162;29;20126;-78
2023/04/23 10:22:04;;;;;;;7.72;4.65;;;;;;;16.28;nan;100294.22;4937073;28;20027;-76
2023/04/23 10:24:59;;;;;;;7.28;4.53;;;;;;;16.89;nan;100356.44;4968615;28;20035;-73
2023/04/23 10:27:30;;;;;;;9.60;3.97;;;;;;;16.93;nan;100347.66;4938366;28;20074;-73
2023/04/23 10:30:00;;;;;;;9.40;3.88;;;;;;;17.09;nan;100352.94;4944806;28;20047;-73
2023/04/23 10:32:26;;;;;;;7.28;3.92;;;;;;;17.21;nan;100354.25;4969552;28;20097;-74
2023/04/23 10:34:52;;;;;;;8.43;3.78;;;;;;;17.27;nan;100332.97;4940525;28;20020;-75
2023/04/23 10:37:18;;;;;;;7.47;3.80;;;;;;;17.39;nan;100331.56;4939469;28;20046;-75
2023/04/23 10:39:48;;;;;;;7.15;3.85;;;;;;;17.55;nan;100332.31;4949777;28;20031;-74
2023/04/23 10:42:15;;;;;;;8.43;3.92;;;;;;;17.69;nan;100329.06;4947705;28;20496;-78
2023/04/23 10:44:42;;;;;;;5.85;3.63;;;;;;;17.75;nan;100312.00;4945745;28;20031;-78
2023/04/23 10:47:15;;;;;;;5.65;3.75;;;;;;;17.77;nan;100297.31;4974654;28;20094;-79
2023/04/23 10:49:41;;;;;;;9.25;3.55;;;;;;;18.10;nan;100329.66;4940462;28;20051;-79
2023/04/23 10:52:14;;;;;;;7.72;3.35;;;;;;;17.62;nan;100230.81;4936978;28;20030;-79
2023/04/23 10:54:41;;;;;;;6.07;3.60;;;;;;;18.23;nan;100307.72;4935809;28;20035;-79
2023/04/23 10:57:10;;;;;;;7.10;3.60;;;;;;;18.48;nan;100320.06;4936457;28;20027;-75
2023/04/23 11:00:00;;;;;;;6.35;3.75;;;;;;;18.42;nan;100294.50;4938321;28;20031;-75
2023/04/23 11:02:43;;;;;;;5.88;3.88;;;;;;;18.75;nan;100313.41;4940573;28;20042;-75
2023/04/23 11:05:09;;;;;;;9.25;3.72;;;;;;;18.76;nan;100299.03;4947739;28;20413;-74
2023/04/23 11:07:34;;;;;;;6.55;3.60;;;;;;;18.81;nan;100290.19;4957537;28;20034;-77
2023/04/23 11:10:11;;;;;;;7.68;3.80;;;;;;;18.92;nan;100294.34;4943101;28;20503;-73
2023/04/23 11:12:38;;;;;;;10.02;4.07;;;;;;;18.91;nan;100290.06;4958568;28;20031;-76
2023/04/23 11:15:15;;;;;;;7.57;3.53;;;;;;;18.95;nan;100274.28;4972181;28;20027;-78
2023/04/23 11:17:43;;;;;;;8.18;3.38;;;;;;;19.24;nan;100300.91;4964946;28;20059;-76
2023/04/23 11:20:12;;;;;;;7.97;3.80;;;;;;;19.32;nan;100306.44;4973286;28;20482;-76
2023/04/23 11:22:39;;;;;;;6.00;3.50;;;;;;;19.21;nan;100258.78;4971948;28;20502;-78
2023/04/23 11:25:25;;;;;;;5.15;3.38;;;;;;;18.92;nan;100201.72;4941276;28;20394;-77
2023/04/23 11:27:53;;;;;;;7.03;3.25;;;;;;;19.16;nan;100216.94;4940714;28;20024;-78
2023/04/23 11:30:21;;;;;;;7.93;3.63;;;;;;;19.54;nan;100265.03;4972721;28;20023;-76
2023/04/23 11:32:50;;;;;;;8.30;3.70;;;;;;;19.68;nan;100278.47;4938433;28;20628;-74
2023/04/23 11:35:17;;;;;;;7.10;3.35;;;;;;;19.89;nan;100287.00;4941702;28;20130;-79
2023/04/23 11:37:44;;;;;;;6.60;3.13;;;;;;;19.88;nan;100274.75;4940112;28;20524;-77
2023/04/23 11:40:12;;;;;;;6.82;3.60;;;;;;;19.94;nan;100273.56;4939701;28;20622;-77
2023/04/23 11:42:48;;;;;;;4.93;3.63;;;;;;;20.04;nan;100275.28;4942262;28;20040;-76
2023/04/23 11:45:15;;;;;;;7.25;3.42;;;;;;;20.02;nan;100254.22;4941656;28;20036;-78
2023/04/23 11:47:40;;;;;;;7.88;3.50;;;;;;;19.87;nan;100235.72;4969873;28;20031;-76
2023/04/23 11:50:07;;;;;;;8.23;3.42;;;;;;;19.83;nan;100258.78;4940902;28;20782;-77
2023/04/23 11:52:32;;;;;;;8.25;3.50;;;;;;;19.84;nan;100265.72;4941019;28;20024;-77
2023/04/23 11:55:02;;;;;;;6.72;3.70;;;;;;;19.85;nan;100259.28;4935446;29;20030;-77
2023/04/23 11:57:28;;;;;;;6.32;3.38;;;;;;;19.95;nan;100259.94;4937379;28;20701;-76
2023/04/23 11:59:53;;;;;;;7.70;3.70;;;;;;;19.90;nan;100238.63;4937532;28;20035;-77
2023/04/23 12:02:22;;;;;;;8.45;3.90;;;;;;;19.95;nan;100225.19;4940472;28;20031;-78
2023/04/23 12:04:48;;;;;;;5.35;3.60;;;;;;;20.00;nan;100218.97;4942271;28;20059;-78
2023/04/23 12:07:14;;;;;;;9.00;3.30;;;;;;;19.89;nan;100204.94;4967933;28;20069;-77
2023/04/23 12:09:39;;;;;;;5.47;3.30;;;;;;;20.12;nan;100211.28;4946266;28;20031;-79
2023/04/23 12:12:05;;;;;;;6.10;3.33;;;;;;;20.26;nan;100215.88;4940018;28;20035;-78